sensor_id;sensor_type;location;lat;lon;timestamp;P1;durP1;ratioP1;P2;durP2;ratioP2
24435;SDS011;12616;52.470;13.436;2023-03-01T00:01:08;21.42;;;14.63;;
24435;SDS011;12616;52.470;13.436;2023-03-01T00:03:37;25.55;;;14.63;;
24435;SDS011;12616;52.470;13.436;2023-03-01T00:06:04;20.98;;;14.15;;
24435;SDS011;12616;52.470;13.436;2023-03-01T00:08:32;19.25;;;14.30;;
24435;SDS011;12616;52.470;13.436;2023-03-01T00:11:02;21.98;;;13.02;;
24435;SDS011;12616;52.470;13.436;2023-03-01T00:13:31;18.88;;;14.00;;
24435;SDS011;12616;52.470;13.436;2023-03-01T00:16:00;19.55;;;13.05;;
24435;SDS011;12616;52.470;13.436;2023-03-01T00:18:28;18.20;;;13.98;;
24435;SDS011;12616;52.470;13.436;2023-03-01T00:20:55;21.17;;;13.48;;
24435;SDS011;12616;52.470;13.436;2023-03-01T00:23:22;21.45;;;14.75;;
24435;SDS011;12616;52.470;13.436;2023-03-01T00:25:49;29.90;;;15.13;;
24435;SDS011;12616;52.470;13.436;2023-03-01T00:28:17;20.85;;;15.05;;
24435;SDS011;12616;52.470;13.436;2023-03-01T00:30:44;23.55;;;15.48;;
24435;SDS011;12616;52.470;13.436;2023-03-01T00:33:12;23.77;;;14.20;;
24435;SDS011;12616;52.470;13.436;2023-03-01T00:35:39;16.98;;;13.07;;
24435;SDS011;12616;52.470;13.436;2023-03-01T00:38:06;20.83;;;14.60;;
24435;SDS011;12616;52.470;13.436;2023-03-01T00:40:33;19.33;;;12.70;;
24435;SDS011;12616;52.470;13.436;2023-03-01T00:43:01;19.75;;;14.38;;
24435;SDS011;12616;52.470;13.436;2023-03-01T00:45:29;17.85;;;12.73;;
24435;SDS011;12616;52.470;13.436;2023-03-01T00:47:57;25.10;;;14.15;;
24435;SDS011;12616;52.470;13.436;2023-03-01T00:50:25;20.23;;;13.95;;
24435;SDS011;12616;52.470;13.436;2023-03-01T00:52:52;20.63;;;14.10;;
24435;SDS011;12616;52.470;13.436;2023-03-01T00:55:19;22.67;;;14.05;;
24435;SDS011;12616;52.470;13.436;2023-03-01T00:57:46;23.45;;;14.30;;
24435;SDS011;12616;52.470;13.436;2023-03-01T01:00:14;20.40;;;13.25;;
24435;SDS011;12616;52.470;13.436;2023-03-01T01:02:41;17.70;;;12.52;;
24435;SDS011;12616;52.470;13.436;2023-03-01T01:05:08;20.27;;;12.05;;
24435;SDS011;12616;52.470;13.436;2023-03-01T01:07:36;22.35;;;13.30;;
24435;SDS011;12616;52.470;13.436;2023-03-01T01:10:03;17.65;;;12.38;;
24435;SDS011;12616;52.470;13.436;2023-03-01T01:12:30;19.85;;;13.38;;
24435;SDS011;12616;52.470;13.436;2023-03-01T01:14:58;19.42;;;13.45;;
24435;SDS011;12616;52.470;13.436;2023-03-01T01:17:25;17.70;;;11.43;;
24435;SDS011;12616;52.470;13.436;2023-03-01T01:19:52;18.05;;;11.98;;
24435;SDS011;12616;52.470;13.436;2023-03-01T01:22:19;21.40;;;13.57;;
24435;SDS011;12616;52.470;13.436;2023-03-01T01:24:47;15.45;;;12.07;;
24435;SDS011;12616;52.470;13.436;2023-03-01T01:27:14;19.15;;;12.40;;
24435;SDS011;12616;52.470;13.436;2023-03-01T01:29:40;17.40;;;12.60;;
24435;SDS011;12616;52.470;13.436;2023-03-01T01:32:08;22.00;;;13.00;;
24435;SDS011;12616;52.470;13.436;2023-03-01T01:34:34;21.65;;;12.38;;
24435;SDS011;12616;52.470;13.436;2023-03-01T01:37:01;21.77;;;13.27;;
24435;SDS011;12616;52.470;13.436;2023-03-01T01:39:28;17.80;;;13.15;;
24435;SDS011;12616;52.470;13.436;2023-03-01T01:41:57;19.50;;;13.82;;
24435;SDS011;12616;52.470;13.436;2023-03-01T01:44:24;25.48;;;13.43;;
24435;SDS011;12616;52.470;13.436;2023-03-01T01:46:53;22.02;;;13.30;;
24435;SDS011;12616;52.470;13.436;2023-03-01T01:49:24;19.33;;;13.32;;
24435;SDS011;12616;52.470;13.436;2023-03-01T01:51:56;19.40;;;13.38;;
24435;SDS011;12616;52.470;13.436;2023-03-01T01:54:29;26.60;;;12.85;;
24435;SDS011;12616;52.470;13.436;2023-03-01T01:57:03;19.77;;;14.00;;
24435;SDS011;12616;52.470;13.436;2023-03-01T01:59:33;21.50;;;13.25;;
24435;SDS011;12616;52.470;13.436;2023-03-01T02:02:02;22.73;;;13.00;;
24435;SDS011;12616;52.470;13.436;2023-03-01T02:04:30;17.05;;;12.57;;
24435;SDS011;12616;52.470;13.436;2023-03-01T02:06:59;25.85;;;14.07;;
24435;SDS011;12616;52.470;13.436;2023-03-01T02:09:30;20.00;;;12.60;;
24435;SDS011;12616;52.470;13.436;2023-03-01T02:11:58;20.90;;;13.85;;
24435;SDS011;12616;52.470;13.436;2023-03-01T02:14:26;25.33;;;16.15;;
24435;SDS011;12616;52.470;13.436;2023-03-01T02:16:53;27.27;;;13.07;;
24435;SDS011;12616;52.470;13.436;2023-03-01T02:19:23;26.65;;;15.82;;
24435;SDS011;12616;52.470;13.436;2023-03-01T02:22:00;19.58;;;14.55;;
24435;SDS011;12616;52.470;13.436;2023-03-01T02:24:39;28.85;;;17.08;;
24435;SDS011;12616;52.470;13.436;2023-03-01T02:27:16;30.13;;;15.23;;
24435;SDS011;12616;52.470;13.436;2023-03-01T02:29:48;25.00;;;15.77;;
24435;SDS011;12616;52.470;13.436;2023-03-01T02:32:15;27.95;;;17.65;;
24435;SDS011;12616;52.470;13.436;2023-03-01T02:34:50;29.80;;;18.00;;
24435;SDS011;12616;52.470;13.436;2023-03-01T02:37:18;25.42;;;14.77;;
24435;SDS011;12616;52.470;13.436;2023-03-01T02:39:50;29.25;;;15.93;;
24435;SDS011;12616;52.470;13.436;2023-03-01T02:42:23;23.42;;;14.57;;
24435;SDS011;12616;52.470;13.436;2023-03-01T02:44:55;28.80;;;17.08;;
24435;SDS011;12616;52.470;13.436;2023-03-01T02:47:22;27.00;;;17.35;;
24435;SDS011;12616;52.470;13.436;2023-03-01T02:49:49;26.58;;;17.77;;
24435;SDS011;12616;52.470;13.436;2023-03-01T02:52:20;26.80;;;17.08;;
24435;SDS011;12616;52.470;13.436;2023-03-01T02:54:57;33.45;;;17.75;;
24435;SDS011;12616;52.470;13.436;2023-03-01T02:57:27;29.77;;;17.90;;
24435;SDS011;12616;52.470;13.436;2023-03-01T02:59:56;22.83;;;18.73;;
24435;SDS011;12616;52.470;13.436;2023-03-01T03:02:26;26.58;;;19.58;;
24435;SDS011;12616;52.470;13.436;2023-03-01T03:05:03;30.95;;;17.45;;
24435;SDS011;12616;52.470;13.436;2023-03-01T03:07:32;28.10;;;18.13;;
24435;SDS011;12616;52.470;13.436;2023-03-01T03:10:00;30.50;;;19.33;;
24435;SDS011;12616;52.470;13.436;2023-03-01T03:12:27;26.40;;;17.85;;
24435;SDS011;12616;52.470;13.436;2023-03-01T03:14:53;27.65;;;19.33;;
24435;SDS011;12616;52.470;13.436;2023-03-01T03:17:22;32.42;;;19.40;;
24435;SDS011;12616;52.470;13.436;2023-03-01T03:19:49;31.92;;;21.08;;
24435;SDS011;12616;52.470;13.436;2023-03-01T03:22:15;29.92;;;18.85;;
24435;SDS011;12616;52.470;13.436;2023-03-01T03:24:42;35.65;;;19.92;;
24435;SDS011;12616;52.470;13.436;2023-03-01T03:27:09;32.83;;;18.63;;
24435;SDS011;12616;52.470;13.436;2023-03-01T03:29:36;30.70;;;18.60;;
24435;SDS011;12616;52.470;13.436;2023-03-01T03:32:04;27.52;;;17.85;;
24435;SDS011;12616;52.470;13.436;2023-03-01T03:34:32;35.08;;;18.98;;
24435;SDS011;12616;52.470;13.436;2023-03-01T03:36:59;31.60;;;19.92;;
24435;SDS011;12616;52.470;13.436;2023-03-01T03:39:26;28.88;;;20.58;;
24435;SDS011;12616;52.470;13.436;2023-03-01T03:41:54;31.20;;;20.05;;
24435;SDS011;12616;52.470;13.436;2023-03-01T03:44:20;34.25;;;19.92;;
24435;SDS011;12616;52.470;13.436;2023-03-01T03:46:47;25.30;;;17.85;;
24435;SDS011;12616;52.470;13.436;2023-03-01T03:49:16;28.70;;;18.40;;
24435;SDS011;12616;52.470;13.436;2023-03-01T03:51:44;30.02;;;18.75;;
24435;SDS011;12616;52.470;13.436;2023-03-01T03:54:11;30.25;;;19.52;;
24435;SDS011;12616;52.470;13.436;2023-03-01T03:56:38;30.92;;;18.80;;
24435;SDS011;12616;52.470;13.436;2023-03-01T03:59:05;28.63;;;18.73;;
24435;SDS011;12616;52.470;13.436;2023-03-01T04:01:32;26.35;;;18.58;;
24435;SDS011;12616;52.470;13.436;2023-03-01T04:03:58;31.30;;;19.33;;
24435;SDS011;12616;52.470;13.436;2023-03-01T04:06:30;29.67;;;19.10;;
24435;SDS011;12616;52.470;13.436;2023-03-01T04:08:57;25.10;;;17.90;;
24435;SDS011;12616;52.470;13.436;2023-03-01T04:11:25;28.20;;;18.38;;
24435;SDS011;12616;52.470;13.436;2023-03-01T04:13:52;30.48;;;18.65;;
24435;SDS011;12616;52.470;13.436;2023-03-01T04:16:20;27.63;;;17.80;;
24435;SDS011;12616;52.470;13.436;2023-03-01T04:18:48;26.30;;;17.90;;
24435;SDS011;12616;52.470;13.436;2023-03-01T04:21:15;24.30;;;17.52;;
24435;SDS011;12616;52.470;13.436;2023-03-01T04:23:44;31.75;;;17.90;;
24435;SDS011;12616;52.470;13.436;2023-03-01T04:26:11;23.27;;;16.52;;
24435;SDS011;12616;52.470;13.436;2023-03-01T04:28:38;22.77;;;17.25;;
24435;SDS011;12616;52.470;13.436;2023-03-01T04:31:09;25.90;;;18.08;;
24435;SDS011;12616;52.470;13.436;2023-03-01T04:33:41;29.88;;;18.15;;
24435;SDS011;12616;52.470;13.436;2023-03-01T04:36:10;26.25;;;16.85;;
24435;SDS011;12616;52.470;13.436;2023-03-01T04:38:38;31.92;;;17.67;;
24435;SDS011;12616;52.470;13.436;2023-03-01T04:41:08;23.98;;;17.15;;
24435;SDS011;12616;52.470;13.436;2023-03-01T04:43:36;26.00;;;16.65;;
24435;SDS011;12616;52.470;13.436;2023-03-01T04:46:04;21.90;;;17.30;;
24435;SDS011;12616;52.470;13.436;2023-03-01T04:48:33;26.08;;;18.23;;
24435;SDS011;12616;52.470;13.436;2023-03-01T04:51:00;27.67;;;16.38;;
24435;SDS011;12616;52.470;13.436;2023-03-01T04:53:28;28.05;;;16.98;;
24435;SDS011;12616;52.470;13.436;2023-03-01T04:55:55;24.08;;;17.27;;
24435;SDS011;12616;52.470;13.436;2023-03-01T04:58:25;26.98;;;17.10;;
24435;SDS011;12616;52.470;13.436;2023-03-01T05:00:53;22.00;;;16.52;;
24435;SDS011;12616;52.470;13.436;2023-03-01T05:03:20;25.35;;;17.10;;
24435;SDS011;12616;52.470;13.436;2023-03-01T05:05:48;22.92;;;15.98;;
24435;SDS011;12616;52.470;13.436;2023-03-01T05:08:17;21.92;;;15.13;;
24435;SDS011;12616;52.470;13.436;2023-03-01T05:10:46;21.85;;;16.40;;
24435;SDS011;12616;52.470;13.436;2023-03-01T05:13:15;24.77;;;15.43;;
24435;SDS011;12616;52.470;13.436;2023-03-01T05:15:47;27.23;;;17.23;;
24435;SDS011;12616;52.470;13.436;2023-03-01T05:18:15;22.52;;;17.95;;
24435;SDS011;12616;52.470;13.436;2023-03-01T05:20:41;24.77;;;16.27;;
24435;SDS011;12616;52.470;13.436;2023-03-01T05:23:09;26.35;;;17.00;;
24435;SDS011;12616;52.470;13.436;2023-03-01T05:25:36;26.75;;;17.98;;
24435;SDS011;12616;52.470;13.436;2023-03-01T05:28:05;36.95;;;22.52;;
24435;SDS011;12616;52.470;13.436;2023-03-01T05:30:34;27.48;;;17.65;;
24435;SDS011;12616;52.470;13.436;2023-03-01T05:33:05;34.78;;;21.80;;
24435;SDS011;12616;52.470;13.436;2023-03-01T05:35:38;23.55;;;17.13;;
24435;SDS011;12616;52.470;13.436;2023-03-01T05:38:06;25.35;;;17.15;;
24435;SDS011;12616;52.470;13.436;2023-03-01T05:40:33;23.67;;;17.60;;
24435;SDS011;12616;52.470;13.436;2023-03-01T05:43:00;24.27;;;17.20;;
24435;SDS011;12616;52.470;13.436;2023-03-01T05:45:30;45.00;;;25.88;;
24435;SDS011;12616;52.470;13.436;2023-03-01T05:47:58;23.35;;;19.17;;
24435;SDS011;12616;52.470;13.436;2023-03-01T05:50:27;24.58;;;17.38;;
24435;SDS011;12616;52.470;13.436;2023-03-01T05:52:56;26.65;;;17.35;;
24435;SDS011;12616;52.470;13.436;2023-03-01T05:55:24;26.05;;;16.50;;
24435;SDS011;12616;52.470;13.436;2023-03-01T05:57:52;30.20;;;18.88;;
24435;SDS011;12616;52.470;13.436;2023-03-01T06:00:19;28.48;;;16.83;;
24435;SDS011;12616;52.470;13.436;2023-03-01T06:02:48;27.52;;;17.25;;
24435;SDS011;12616;52.470;13.436;2023-03-01T06:05:15;26.13;;;16.38;;
24435;SDS011;12616;52.470;13.436;2023-03-01T06:07:43;22.05;;;17.80;;
24435;SDS011;12616;52.470;13.436;2023-03-01T06:10:10;34.88;;;19.58;;
24435;SDS011;12616;52.470;13.436;2023-03-01T06:12:39;28.55;;;19.17;;
24435;SDS011;12616;52.470;13.436;2023-03-01T06:15:07;29.60;;;19.58;;
24435;SDS011;12616;52.470;13.436;2023-03-01T06:17:35;29.15;;;19.65;;
24435;SDS011;12616;52.470;13.436;2023-03-01T06:20:04;32.47;;;17.35;;
24435;SDS011;12616;52.470;13.436;2023-03-01T06:22:34;24.48;;;17.15;;
24435;SDS011;12616;52.470;13.436;2023-03-01T06:25:02;21.35;;;17.20;;
24435;SDS011;12616;52.470;13.436;2023-03-01T06:27:29;27.45;;;17.98;;
24435;SDS011;12616;52.470;13.436;2023-03-01T06:29:56;28.85;;;18.45;;
24435;SDS011;12616;52.470;13.436;2023-03-01T06:32:23;24.35;;;16.85;;
24435;SDS011;12616;52.470;13.436;2023-03-01T06:34:50;29.67;;;18.20;;
24435;SDS011;12616;52.470;13.436;2023-03-01T06:37:17;23.90;;;18.02;;
24435;SDS011;12616;52.470;13.436;2023-03-01T06:39:44;31.75;;;21.52;;
24435;SDS011;12616;52.470;13.436;2023-03-01T06:42:12;23.52;;;16.35;;
24435;SDS011;12616;52.470;13.436;2023-03-01T06:44:38;26.15;;;19.08;;
24435;SDS011;12616;52.470;13.436;2023-03-01T06:47:05;20.45;;;17.63;;
24435;SDS011;12616;52.470;13.436;2023-03-01T06:49:32;27.05;;;18.80;;
24435;SDS011;12616;52.470;13.436;2023-03-01T06:51:59;25.73;;;18.33;;
24435;SDS011;12616;52.470;13.436;2023-03-01T06:54:26;26.85;;;18.92;;
24435;SDS011;12616;52.470;13.436;2023-03-01T06:56:52;26.92;;;17.55;;
24435;SDS011;12616;52.470;13.436;2023-03-01T06:59:20;30.58;;;19.98;;
24435;SDS011;12616;52.470;13.436;2023-03-01T07:01:47;25.65;;;17.40;;
24435;SDS011;12616;52.470;13.436;2023-03-01T07:04:14;39.72;;;20.27;;
24435;SDS011;12616;52.470;13.436;2023-03-01T07:06:41;45.10;;;22.67;;
24435;SDS011;12616;52.470;13.436;2023-03-01T07:09:08;31.73;;;21.40;;
24435;SDS011;12616;52.470;13.436;2023-03-01T07:11:35;35.03;;;20.98;;
24435;SDS011;12616;52.470;13.436;2023-03-01T07:14:01;30.35;;;19.67;;
24435;SDS011;12616;52.470;13.436;2023-03-01T07:16:32;28.92;;;18.58;;
24435;SDS011;12616;52.470;13.436;2023-03-01T07:18:58;28.73;;;17.73;;
24435;SDS011;12616;52.470;13.436;2023-03-01T07:21:25;32.63;;;19.52;;
24435;SDS011;12616;52.470;13.436;2023-03-01T07:23:52;26.13;;;16.52;;
24435;SDS011;12616;52.470;13.436;2023-03-01T07:26:19;35.30;;;21.23;;
24435;SDS011;12616;52.470;13.436;2023-03-01T07:28:46;28.67;;;20.95;;
24435;SDS011;12616;52.470;13.436;2023-03-01T07:31:12;32.28;;;21.73;;
24435;SDS011;12616;52.470;13.436;2023-03-01T07:33:41;36.00;;;20.35;;
24435;SDS011;12616;52.470;13.436;2023-03-01T07:36:08;29.50;;;22.50;;
24435;SDS011;12616;52.470;13.436;2023-03-01T07:38:35;29.52;;;21.65;;
24435;SDS011;12616;52.470;13.436;2023-03-01T07:41:02;28.88;;;20.83;;
24435;SDS011;12616;52.470;13.436;2023-03-01T07:43:30;33.13;;;21.25;;
24435;SDS011;12616;52.470;13.436;2023-03-01T07:45:58;26.92;;;19.65;;
24435;SDS011;12616;52.470;13.436;2023-03-01T07:48:25;30.88;;;21.60;;
24435;SDS011;12616;52.470;13.436;2023-03-01T07:50:54;34.35;;;21.55;;
24435;SDS011;12616;52.470;13.436;2023-03-01T07:53:20;25.98;;;19.60;;
24435;SDS011;12616;52.470;13.436;2023-03-01T07:55:47;32.25;;;20.33;;
24435;SDS011;12616;52.470;13.436;2023-03-01T07:58:14;35.78;;;20.88;;
24435;SDS011;12616;52.470;13.436;2023-03-01T08:00:41;33.20;;;22.95;;
24435;SDS011;12616;52.470;13.436;2023-03-01T08:03:08;34.58;;;20.13;;
24435;SDS011;12616;52.470;13.436;2023-03-01T08:05:34;21.83;;;18.58;;
24435;SDS011;12616;52.470;13.436;2023-03-01T08:08:03;35.15;;;17.95;;
24435;SDS011;12616;52.470;13.436;2023-03-01T08:10:31;34.08;;;20.05;;
24435;SDS011;12616;52.470;13.436;2023-03-01T08:12:57;23.63;;;18.88;;
24435;SDS011;12616;52.470;13.436;2023-03-01T08:15:24;33.90;;;19.70;;
24435;SDS011;12616;52.470;13.436;2023-03-01T08:17:51;42.53;;;19.80;;
24435;SDS011;12616;52.470;13.436;2023-03-01T08:20:18;25.85;;;17.00;;
24435;SDS011;12616;52.470;13.436;2023-03-01T08:22:45;28.60;;;17.92;;
24435;SDS011;12616;52.470;13.436;2023-03-01T08:25:14;22.65;;;16.60;;
24435;SDS011;12616;52.470;13.436;2023-03-01T08:27:40;34.30;;;19.55;;
24435;SDS011;12616;52.470;13.436;2023-03-01T08:30:08;30.15;;;18.23;;
24435;SDS011;12616;52.470;13.436;2023-03-01T08:32:36;39.22;;;25.20;;
24435;SDS011;12616;52.470;13.436;2023-03-01T08:35:04;27.58;;;18.63;;
24435;SDS011;12616;52.470;13.436;2023-03-01T08:37:31;25.67;;;20.00;;
24435;SDS011;12616;52.470;13.436;2023-03-01T08:39:58;24.95;;;17.27;;
24435;SDS011;12616;52.470;13.436;2023-03-01T08:42:26;24.80;;;17.83;;
24435;SDS011;12616;52.470;13.436;2023-03-01T08:44:53;21.10;;;15.60;;
24435;SDS011;12616;52.470;13.436;2023-03-01T08:47:21;21.60;;;16.00;;
24435;SDS011;12616;52.470;13.436;2023-03-01T08:49:49;27.55;;;16.67;;
24435;SDS011;12616;52.470;13.436;2023-03-01T08:52:16;24.50;;;15.25;;
24435;SDS011;12616;52.470;13.436;2023-03-01T08:54:42;18.10;;;13.55;;
24435;SDS011;12616;52.470;13.436;2023-03-01T08:57:09;18.65;;;12.25;;
24435;SDS011;12616;52.470;13.436;2023-03-01T08:59:39;15.57;;;11.73;;
24435;SDS011;12616;52.470;13.436;2023-03-01T09:02:08;22.90;;;11.73;;
24435;SDS011;12616;52.470;13.436;2023-03-01T09:04:38;17.85;;;12.60;;
24435;SDS011;12616;52.470;13.436;2023-03-01T09:07:05;16.77;;;11.32;;
24435;SDS011;12616;52.470;13.436;2023-03-01T09:09:32;14.70;;;10.85;;
24435;SDS011;12616;52.470;13.436;2023-03-01T09:11:59;12.85;;;11.00;;
24435;SDS011;12616;52.470;13.436;2023-03-01T09:14:26;13.02;;;9.65;;
24435;SDS011;12616;52.470;13.436;2023-03-01T09:16:54;16.27;;;10.20;;
24435;SDS011;12616;52.470;13.436;2023-03-01T09:19:21;13.65;;;10.32;;
24435;SDS011;12616;52.470;13.436;2023-03-01T09:21:48;20.08;;;9.82;;
24435;SDS011;12616;52.470;13.436;2023-03-01T09:24:18;11.20;;;9.23;;
24435;SDS011;12616;52.470;13.436;2023-03-01T09:26:46;14.77;;;10.32;;
24435;SDS011;12616;52.470;13.436;2023-03-01T09:29:16;18.08;;;11.88;;
24435;SDS011;12616;52.470;13.436;2023-03-01T09:31:43;16.65;;;10.80;;
24435;SDS011;12616;52.470;13.436;2023-03-01T09:34:11;15.00;;;11.38;;
24435;SDS011;12616;52.470;13.436;2023-03-01T09:36:40;20.45;;;10.70;;
24435;SDS011;12616;52.470;13.436;2023-03-01T09:39:07;13.38;;;10.25;;
24435;SDS011;12616;52.470;13.436;2023-03-01T09:41:47;14.43;;;11.32;;
24435;SDS011;12616;52.470;13.436;2023-03-01T09:44:25;12.45;;;9.88;;
24435;SDS011;12616;52.470;13.436;2023-03-01T09:46:57;18.83;;;10.70;;
24435;SDS011;12616;52.470;13.436;2023-03-01T09:49:27;23.23;;;12.38;;
24435;SDS011;12616;52.470;13.436;2023-03-01T09:51:57;12.75;;;9.77;;
24435;SDS011;12616;52.470;13.436;2023-03-01T09:54:27;12.95;;;10.20;;
24435;SDS011;12616;52.470;13.436;2023-03-01T09:56:58;16.75;;;11.90;;
24435;SDS011;12616;52.470;13.436;2023-03-01T09:59:44;16.08;;;10.15;;
24435;SDS011;12616;52.470;13.436;2023-03-01T10:02:23;13.65;;;10.32;;
24435;SDS011;12616;52.470;13.436;2023-03-01T10:05:00;17.05;;;10.10;;
24435;SDS011;12616;52.470;13.436;2023-03-01T10:07:39;13.45;;;10.25;;
24435;SDS011;12616;52.470;13.436;2023-03-01T10:10:16;19.67;;;9.38;;
24435;SDS011;12616;52.470;13.436;2023-03-01T10:12:54;9.55;;;7.70;;
24435;SDS011;12616;52.470;13.436;2023-03-01T10:15:25;15.52;;;7.90;;
24435;SDS011;12616;52.470;13.436;2023-03-01T10:18:01;10.15;;;8.30;;
24435;SDS011;12616;52.470;13.436;2023-03-01T10:20:36;11.30;;;8.50;;
24435;SDS011;12616;52.470;13.436;2023-03-01T10:23:11;11.52;;;8.40;;
24435;SDS011;12616;52.470;13.436;2023-03-01T10:25:44;10.18;;;7.70;;
24435;SDS011;12616;52.470;13.436;2023-03-01T10:28:20;8.77;;;7.95;;
24435;SDS011;12616;52.470;13.436;2023-03-01T10:30:53;10.02;;;6.53;;
24435;SDS011;12616;52.470;13.436;2023-03-01T10:33:21;8.48;;;6.47;;
24435;SDS011;12616;52.470;13.436;2023-03-01T10:35:51;10.77;;;6.75;;
24435;SDS011;12616;52.470;13.436;2023-03-01T10:38:19;8.90;;;7.20;;
24435;SDS011;12616;52.470;13.436;2023-03-01T10:40:50;9.23;;;6.88;;
24435;SDS011;12616;52.470;13.436;2023-03-01T10:43:19;9.45;;;7.32;;
24435;SDS011;12616;52.470;13.436;2023-03-01T10:45:46;7.57;;;5.95;;
24435;SDS011;12616;52.470;13.436;2023-03-01T10:48:14;8.90;;;6.60;;
24435;SDS011;12616;52.470;13.436;2023-03-01T10:50:42;9.18;;;7.05;;
24435;SDS011;12616;52.470;13.436;2023-03-01T10:53:20;7.75;;;6.07;;
24435;SDS011;12616;52.470;13.436;2023-03-01T10:56:01;12.82;;;7.05;;
24435;SDS011;12616;52.470;13.436;2023-03-01T10:58:31;10.38;;;7.50;;
24435;SDS011;12616;52.470;13.436;2023-03-01T11:00:59;8.80;;;6.45;;
24435;SDS011;12616;52.470;13.436;2023-03-01T11:03:27;6.40;;;5.80;;
24435;SDS011;12616;52.470;13.436;2023-03-01T11:06:03;7.53;;;5.35;;
24435;SDS011;12616;52.470;13.436;2023-03-01T11:08:37;7.38;;;6.32;;
24435;SDS011;12616;52.470;13.436;2023-03-01T11:11:07;7.65;;;5.72;;
24435;SDS011;12616;52.470;13.436;2023-03-01T11:13:50;5.38;;;4.85;;
24435;SDS011;12616;52.470;13.436;2023-03-01T11:16:25;9.02;;;5.50;;
24435;SDS011;12616;52.470;13.436;2023-03-01T11:18:56;8.07;;;5.55;;
24435;SDS011;12616;52.470;13.436;2023-03-01T11:21:24;8.02;;;5.28;;
24435;SDS011;12616;52.470;13.436;2023-03-01T11:23:55;7.97;;;6.43;;
24435;SDS011;12616;52.470;13.436;2023-03-01T11:26:24;10.73;;;6.45;;
24435;SDS011;12616;52.470;13.436;2023-03-01T11:28:52;7.13;;;4.90;;
24435;SDS011;12616;52.470;13.436;2023-03-01T11:31:23;10.43;;;4.60;;
24435;SDS011;12616;52.470;13.436;2023-03-01T11:33:53;6.90;;;5.65;;
24435;SDS011;12616;52.470;13.436;2023-03-01T11:36:26;6.72;;;5.15;;
24435;SDS011;12616;52.470;13.436;2023-03-01T11:39:02;6.55;;;5.15;;
24435;SDS011;12616;52.470;13.436;2023-03-01T11:41:39;7.30;;;5.28;;
24435;SDS011;12616;52.470;13.436;2023-03-01T11:44:10;6.82;;;5.30;;
24435;SDS011;12616;52.470;13.436;2023-03-01T11:46:45;7.05;;;4.72;;
24435;SDS011;12616;52.470;13.436;2023-03-01T11:52:24;6.38;;;4.32;;
24435;SDS011;12616;52.470;13.436;2023-03-01T11:55:03;12.30;;;5.10;;
24435;SDS011;12616;52.470;13.436;2023-03-01T11:57:47;6.88;;;4.15;;
24435;SDS011;12616;52.470;13.436;2023-03-01T12:00:43;8.70;;;5.05;;
24435;SDS011;12616;52.470;13.436;2023-03-01T12:03:28;5.03;;;3.80;;
24435;SDS011;12616;52.470;13.436;2023-03-01T12:06:12;4.88;;;4.38;;
24435;SDS011;12616;52.470;13.436;2023-03-01T12:09:09;5.70;;;4.53;;
24435;SDS011;12616;52.470;13.436;2023-03-01T12:11:54;4.95;;;4.35;;
24435;SDS011;12616;52.470;13.436;2023-03-01T12:14:50;6.40;;;5.28;;
24435;SDS011;12616;52.470;13.436;2023-03-01T12:17:32;5.35;;;3.85;;
24435;SDS011;12616;52.470;13.436;2023-03-01T12:20:15;6.45;;;4.40;;
24435;SDS011;12616;52.470;13.436;2023-03-01T12:22:52;4.07;;;3.55;;
24435;SDS011;12616;52.470;13.436;2023-03-01T12:25:33;5.53;;;3.42;;
24435;SDS011;12616;52.470;13.436;2023-03-01T12:28:11;5.53;;;4.15;;
24435;SDS011;12616;52.470;13.436;2023-03-01T12:30:56;4.13;;;3.17;;
24435;SDS011;12616;52.470;13.436;2023-03-01T12:33:38;5.35;;;3.95;;
24435;SDS011;12616;52.470;13.436;2023-03-01T12:36:24;19.65;;;4.93;;
24435;SDS011;12616;52.470;13.436;2023-03-01T12:39:04;5.65;;;3.42;;
24435;SDS011;12616;52.470;13.436;2023-03-01T12:41:44;5.55;;;3.10;;
24435;SDS011;12616;52.470;13.436;2023-03-01T12:44:20;4.60;;;3.15;;
24435;SDS011;12616;52.470;13.436;2023-03-01T12:46:59;4.53;;;4.10;;
24435;SDS011;12616;52.470;13.436;2023-03-01T12:49:37;6.15;;;4.35;;
24435;SDS011;12616;52.470;13.436;2023-03-01T12:52:09;5.38;;;3.67;;
24435;SDS011;12616;52.470;13.436;2023-03-01T12:54:39;5.93;;;4.13;;
24435;SDS011;12616;52.470;13.436;2023-03-01T12:57:09;6.43;;;4.45;;
24435;SDS011;12616;52.470;13.436;2023-03-01T12:59:46;6.30;;;3.00;;
24435;SDS011;12616;52.470;13.436;2023-03-01T13:02:23;6.05;;;3.70;;
24435;SDS011;12616;52.470;13.436;2023-03-01T13:05:02;7.45;;;3.05;;
24435;SDS011;12616;52.470;13.436;2023-03-01T13:07:41;7.40;;;3.33;;
24435;SDS011;12616;52.470;13.436;2023-03-01T13:10:17;5.13;;;4.03;;
24435;SDS011;12616;52.470;13.436;2023-03-01T13:12:53;10.07;;;4.38;;
24435;SDS011;12616;52.470;13.436;2023-03-01T13:15:33;7.18;;;3.28;;
24435;SDS011;12616;52.470;13.436;2023-03-01T13:18:02;4.05;;;3.65;;
24435;SDS011;12616;52.470;13.436;2023-03-01T13:20:32;4.20;;;3.15;;
24435;SDS011;12616;52.470;13.436;2023-03-01T13:23:02;6.95;;;3.22;;
24435;SDS011;12616;52.470;13.436;2023-03-01T13:25:34;5.10;;;2.97;;
24435;SDS011;12616;52.470;13.436;2023-03-01T13:28:36;9.43;;;3.65;;
24435;SDS011;12616;52.470;13.436;2023-03-01T13:31:06;7.35;;;4.15;;
24435;SDS011;12616;52.470;13.436;2023-03-01T13:33:41;4.18;;;3.20;;
24435;SDS011;12616;52.470;13.436;2023-03-01T13:36:10;3.33;;;2.95;;
24435;SDS011;12616;52.470;13.436;2023-03-01T13:39:00;5.03;;;2.88;;
24435;SDS011;12616;52.470;13.436;2023-03-01T13:41:48;5.10;;;3.65;;
24435;SDS011;12616;52.470;13.436;2023-03-01T13:44:21;4.38;;;3.47;;
24435;SDS011;12616;52.470;13.436;2023-03-01T13:46:52;5.60;;;3.20;;
24435;SDS011;12616;52.470;13.436;2023-03-01T13:49:22;5.25;;;2.65;;
24435;SDS011;12616;52.470;13.436;2023-03-01T13:51:52;6.30;;;3.90;;
24435;SDS011;12616;52.470;13.436;2023-03-01T13:54:26;3.40;;;2.83;;
24435;SDS011;12616;52.470;13.436;2023-03-01T13:56:56;3.05;;;2.85;;
24435;SDS011;12616;52.470;13.436;2023-03-01T13:59:26;4.75;;;2.80;;
24435;SDS011;12616;52.470;13.436;2023-03-01T14:01:55;4.75;;;4.00;;
24435;SDS011;12616;52.470;13.436;2023-03-01T14:04:24;5.68;;;2.75;;
24435;SDS011;12616;52.470;13.436;2023-03-01T14:07:08;4.50;;;3.72;;
24435;SDS011;12616;52.470;13.436;2023-03-01T14:09:37;6.93;;;4.43;;
24435;SDS011;12616;52.470;13.436;2023-03-01T14:12:12;3.72;;;2.70;;
24435;SDS011;12616;52.470;13.436;2023-03-01T14:14:50;3.90;;;2.90;;
24435;SDS011;12616;52.470;13.436;2023-03-01T14:17:30;4.32;;;2.70;;
24435;SDS011;12616;52.470;13.436;2023-03-01T14:20:17;2.90;;;2.70;;
24435;SDS011;12616;52.470;13.436;2023-03-01T14:22:46;4.97;;;2.90;;
24435;SDS011;12616;52.470;13.436;2023-03-01T14:25:17;5.50;;;2.92;;
24435;SDS011;12616;52.470;13.436;2023-03-01T14:27:51;5.75;;;3.63;;
24435;SDS011;12616;52.470;13.436;2023-03-01T14:30:26;6.20;;;3.25;;
24435;SDS011;12616;52.470;13.436;2023-03-01T14:32:56;4.93;;;2.90;;
24435;SDS011;12616;52.470;13.436;2023-03-01T14:35:25;4.32;;;3.50;;
24435;SDS011;12616;52.470;13.436;2023-03-01T14:37:53;5.20;;;3.03;;